createdAt,value
2019-02-19T00:01:02.293Z,98350.70
2019-02-19T00:03:34.253Z,98351.20
2019-02-19T00:06:06.242Z,98357.97
2019-02-19T00:08:38.443Z,98358.47
2019-02-19T00:11:10.450Z,98358.72
2019-02-19T00:13:42.432Z,98362.79
2019-02-19T00:16:14.418Z,98357.29
2019-02-19T00:18:46.417Z,98351.45
2019-02-19T00:21:18.517Z,98349.72
2019-02-19T00:23:50.488Z,98352.45
2019-02-19T00:26:22.641Z,98352.70
2019-02-19T00:28:54.637Z,98356.03
2019-02-19T00:31:26.846Z,98356.23
2019-02-19T00:34:00.600Z,98351.11
2019-02-19T00:36:32.613Z,98351.05
2019-02-19T00:39:04.917Z,98350.98
2019-02-19T00:41:36.916Z,98354.09
2019-02-19T00:44:08.884Z,98356.91
2019-02-19T00:46:40.936Z,98356.81
2019-02-19T00:49:12.889Z,98354.59
2019-02-19T00:51:44.902Z,98355.27
2019-02-19T00:54:16.880Z,98352.45
2019-02-19T00:56:48.881Z,98350.18
2019-02-19T00:59:20.875Z,98364.55
2019-02-19T01:01:52.866Z,98359.13
2019-02-19T01:04:24.835Z,98356.23
2019-02-19T01:06:56.832Z,98357.88
2019-02-19T01:09:28.822Z,98355.34
2019-02-19T01:12:00.883Z,98357.09
2019-02-19T01:14:32.885Z,98360.74
2019-02-19T01:17:04.815Z,98360.86
2019-02-19T01:19:36.797Z,98360.37
2019-02-19T01:22:08.856Z,98352.98
2019-02-19T01:24:40.840Z,98359.41
2019-02-19T01:27:12.831Z,98354.07
2019-02-19T01:29:44.852Z,98348.75
2019-02-19T01:32:16.800Z,98351.47
2019-02-19T01:34:48.807Z,98350.45
2019-02-19T01:37:40.241Z,98355.16
2019-02-19T01:40:12.255Z,98356.36
2019-02-19T01:42:44.264Z,98350.86
2019-02-19T01:45:16.216Z,98358.09
2019-02-19T01:47:48.169Z,98352.68
2019-02-19T01:50:20.194Z,98354.61
2019-02-19T01:52:52.181Z,98349.58
2019-02-19T01:55:25.133Z,98341.06
2019-02-19T01:57:57.099Z,98334.47
2019-02-19T02:00:29.115Z,98336.47
2019-02-19T02:03:02.907Z,98342.75
2019-02-19T02:05:34.939Z,98336.08
2019-02-19T02:08:06.928Z,98342.20
2019-02-19T02:10:38.922Z,98338.70
2019-02-19T02:13:10.896Z,98332.11
2019-02-19T02:15:43.031Z,98332.28
2019-02-19T02:18:14.960Z,98328.80
2019-02-19T02:20:47.056Z,98329.23
2019-02-19T02:23:19.023Z,98329.08
2019-02-19T02:25:51.027Z,98331.50
2019-02-19T02:28:22.993Z,98331.20
2019-02-19T02:30:54.980Z,98328.58
2019-02-19T02:33:26.944Z,98335.05
2019-02-19T02:35:58.939Z,98327.02
2019-02-19T02:38:30.913Z,98331.30
2019-02-19T02:41:02.914Z,98331.09
2019-02-19T02:43:34.883Z,98332.66
2019-02-19T02:46:06.897Z,98329.13
2019-02-19T02:48:38.847Z,98337.94
2019-02-19T02:51:10.840Z,98338.79
2019-02-19T02:53:42.934Z,98334.13
2019-02-19T02:56:16.047Z,98336.68
2019-02-19T02:58:48.008Z,98339.33
2019-02-19T03:01:20.011Z,98335.76
2019-02-19T03:03:51.980Z,98333.45
2019-02-19T03:06:29.889Z,98340.15
2019-02-19T03:09:01.869Z,98337.43
2019-02-19T03:11:33.859Z,98338.52
2019-02-19T03:14:07.541Z,98337.73
2019-02-19T03:16:39.527Z,98336.31
2019-02-19T03:19:11.574Z,98343.92
2019-02-19T03:21:43.542Z,98344.05
2019-02-19T03:24:15.502Z,98339.23
2019-02-19T03:26:47.497Z,98348.47
2019-02-19T03:29:19.462Z,98350.75
2019-02-19T03:31:51.455Z,98349.56
2019-02-19T03:34:23.440Z,98345.11
2019-02-19T03:36:55.434Z,98344.05
2019-02-19T03:39:27.454Z,98347.89
2019-02-19T03:41:59.453Z,98347.52
2019-02-19T03:44:31.444Z,98347.95
2019-02-19T03:47:03.430Z,98347.33
2019-02-19T03:49:35.417Z,98346.64
2019-02-19T03:52:07.485Z,98354.13
2019-02-19T03:54:39.456Z,98361.53
2019-02-19T03:57:11.453Z,98365.20
2019-02-19T03:59:43.517Z,98367.02
2019-02-19T04:02:15.501Z,98364.26
2019-02-19T04:04:47.491Z,98373.57
2019-02-19T04:07:19.449Z,98365.48
2019-02-19T04:09:51.464Z,98365.77
2019-02-19T04:12:23.466Z,98367.54
2019-02-19T04:14:55.569Z,98364.52
2019-02-19T04:17:27.543Z,98369.69
2019-02-19T04:19:59.611Z,98367.42
2019-02-19T04:22:33.396Z,98369.86
2019-02-19T04:25:05.363Z,98374.25
2019-02-19T04:27:37.325Z,98374.98
2019-02-19T04:30:09.332Z,98372.67
2019-02-19T04:32:41.289Z,98367.86
2019-02-19T04:35:13.289Z,98371.22
2019-02-19T04:37:46.387Z,98367.22
2019-02-19T04:40:19.722Z,98368.39
2019-02-19T04:42:51.699Z,98366.69
2019-02-19T04:45:23.714Z,98375.30
2019-02-19T04:47:55.708Z,98374.28
2019-02-19T04:50:27.686Z,98374.45
2019-02-19T04:52:59.643Z,98377.15
2019-02-19T04:55:31.664Z,98377.41
2019-02-19T04:58:03.630Z,98382.38
2019-02-19T05:00:35.643Z,98385.16
2019-02-19T05:03:07.616Z,98380.66
2019-02-19T05:05:39.602Z,98375.70
2019-02-19T05:08:11.575Z,98371.11
2019-02-19T05:10:43.641Z,98372.89
2019-02-19T05:13:15.634Z,98372.45
2019-02-19T05:15:47.635Z,98366.72
2019-02-19T05:18:19.610Z,98375.20
2019-02-19T05:20:51.607Z,98379.91
2019-02-19T05:23:23.601Z,98375.73
2019-02-19T05:25:55.629Z,98378.72
2019-02-19T05:28:27.594Z,98390.41
2019-02-19T05:30:59.577Z,98375.70
2019-02-19T05:33:31.552Z,98381.69
2019-02-19T05:36:03.589Z,98376.66
2019-02-19T05:38:35.528Z,98370.99
2019-02-19T05:41:07.758Z,98367.85
2019-02-19T05:43:39.775Z,98363.26
2019-02-19T05:46:11.797Z,98371.20
2019-02-19T05:48:43.761Z,98375.20
2019-02-19T05:51:15.765Z,98369.31
2019-02-19T05:53:47.742Z,98377.91
2019-02-19T05:56:19.767Z,98377.11
2019-02-19T05:58:51.767Z,98377.28
2019-02-19T06:01:23.779Z,98381.17
2019-02-19T06:03:55.839Z,98381.94
2019-02-19T06:06:27.871Z,98381.43
2019-02-19T06:08:59.863Z,98382.95
2019-02-19T06:11:32.059Z,98386.29
2019-02-19T06:14:04.072Z,98380.86
2019-02-19T06:16:36.106Z,98387.27
2019-02-19T06:19:08.168Z,98387.77
2019-02-19T06:21:40.174Z,98390.14
2019-02-19T06:24:12.159Z,98395.12
2019-02-19T06:26:44.141Z,98399.19
2019-02-19T06:29:16.167Z,98407.37
2019-02-19T06:31:48.116Z,98405.69
2019-02-19T06:34:20.113Z,98404.02
2019-02-19T06:36:52.100Z,98409.89
2019-02-19T06:39:24.107Z,98405.06
2019-02-19T06:41:56.065Z,98398.25
2019-02-19T06:44:28.710Z,98399.72
2019-02-19T06:47:06.686Z,98404.18
2019-02-19T06:49:34.615Z,98410.98
2019-02-19T06:52:06.789Z,98426.05
2019-02-19T06:54:38.795Z,98430.27
2019-02-19T06:57:10.766Z,98427.98
2019-02-19T06:59:42.778Z,98437.11
2019-02-19T07:02:23.744Z,98425.72
2019-02-19T07:04:58.324Z,98429.67
2019-02-19T07:07:30.348Z,98429.06
2019-02-19T07:10:02.345Z,98428.98
2019-02-19T07:12:34.327Z,98433.72
2019-02-19T07:15:06.376Z,98427.41
2019-02-19T07:17:38.349Z,98423.25
2019-02-19T07:20:10.397Z,98422.42
2019-02-19T07:22:42.377Z,98424.27
2019-02-19T07:25:14.396Z,98422.08
2019-02-19T07:27:46.374Z,98416.60
2019-02-19T07:30:18.366Z,98413.13
2019-02-19T07:32:50.344Z,98404.43
2019-02-19T07:35:22.379Z,98409.70
2019-02-19T07:37:54.384Z,98412.41
2019-02-19T07:40:26.375Z,98407.41
2019-02-19T07:42:58.383Z,98419.84
2019-02-19T07:45:30.363Z,98414.05
2019-02-19T07:48:02.384Z,98415.84
2019-02-19T07:50:34.410Z,98421.94
2019-02-19T07:53:06.896Z,98425.51
2019-02-19T07:55:38.917Z,98427.05
2019-02-19T07:58:10.922Z,98432.58
2019-02-19T08:00:42.927Z,98428.53
2019-02-19T08:03:14.945Z,98427.67
2019-02-19T08:05:46.910Z,98424.92
2019-02-19T08:08:18.923Z,98429.61
2019-02-19T08:10:50.947Z,98428.72
2019-02-19T08:13:22.994Z,98430.08
2019-02-19T08:15:55.060Z,98422.01
2019-02-19T08:18:27.082Z,98412.02
2019-02-19T08:20:59.127Z,98424.80
2019-02-19T08:23:31.124Z,98421.53
2019-02-19T08:26:03.148Z,98426.44
2019-02-19T08:28:35.169Z,98421.38
2019-02-19T08:31:07.197Z,98421.72
2019-02-19T08:33:39.216Z,98431.59
2019-02-19T08:36:11.249Z,98431.61
2019-02-19T08:38:43.242Z,98432.89
2019-02-19T08:41:15.342Z,98437.66
2019-02-19T08:43:47.343Z,98441.64
2019-02-19T08:46:19.349Z,98435.94
2019-02-19T08:49:32.120Z,98436.47
2019-02-19T08:52:04.136Z,98429.12
2019-02-19T08:54:36.153Z,98428.40
2019-02-19T08:57:08.286Z,98432.98
2019-02-19T08:59:40.278Z,98430.84
2019-02-19T09:02:12.283Z,98433.25
2019-02-19T09:04:44.245Z,98427.19
2019-02-19T09:07:16.255Z,98426.19
2019-02-19T09:09:48.203Z,98429.34
2019-02-19T09:12:20.221Z,98430.22
2019-02-19T09:14:52.201Z,98445.43
2019-02-19T09:17:24.187Z,98452.27
2019-02-19T09:19:56.184Z,98447.62
2019-02-19T09:22:28.205Z,98451.16
2019-02-19T09:25:00.325Z,98450.62
2019-02-19T09:27:32.312Z,98455.20
2019-02-19T09:30:05.466Z,98445.52
2019-02-19T09:32:37.456Z,98452.22
2019-02-19T09:35:09.473Z,98448.16
2019-02-19T09:37:41.435Z,98447.48
2019-02-19T09:40:13.419Z,98444.13
2019-02-19T09:42:45.380Z,98449.68
2019-02-19T09:45:17.380Z,98453.63
2019-02-19T09:47:49.385Z,98453.40
2019-02-19T09:50:21.371Z,98455.95
2019-02-19T09:52:59.795Z,98456.61
2019-02-19T09:55:27.256Z,98456.28
2019-02-19T09:57:59.240Z,98455.68
2019-02-19T10:00:31.240Z,98453.55
2019-02-19T10:03:03.273Z,98457.20
2019-02-19T10:05:35.282Z,98459.48
2019-02-19T10:08:07.365Z,98449.95
2019-02-19T10:10:39.351Z,98448.63
2019-02-19T10:13:11.363Z,98459.05
2019-02-19T10:15:43.375Z,98458.69
2019-02-19T10:18:15.345Z,98459.83
2019-02-19T10:20:47.377Z,98467.80
2019-02-19T10:23:19.342Z,98466.23
2019-02-19T10:25:51.389Z,98449.83
2019-02-19T10:28:23.389Z,98454.92
2019-02-19T10:30:55.365Z,98462.08
2019-02-19T10:33:27.368Z,98458.52
2019-02-19T10:35:59.369Z,98461.03
2019-02-19T10:38:31.353Z,98462.31
2019-02-19T10:41:03.389Z,98466.25
2019-02-19T10:43:35.383Z,98470.39
2019-02-19T10:46:07.384Z,98472.36
2019-02-19T10:48:39.353Z,98466.46
2019-02-19T10:51:11.343Z,98471.77
2019-02-19T10:53:43.300Z,98472.09
2019-02-19T10:56:15.310Z,98472.09
2019-02-19T10:58:47.297Z,98463.00
2019-02-19T11:01:19.311Z,98464.13
2019-02-19T11:03:51.303Z,98460.03
2019-02-19T11:06:23.321Z,98463.91
2019-02-19T11:08:55.314Z,98458.20
2019-02-19T11:11:27.305Z,98456.23
2019-02-19T11:13:59.304Z,98460.75
2019-02-19T11:16:31.314Z,98466.58
2019-02-19T11:19:03.295Z,98461.47
2019-02-19T11:21:35.351Z,98455.98
2019-02-19T11:24:07.363Z,98437.39
2019-02-19T11:26:39.413Z,98434.03
2019-02-19T11:29:11.438Z,98434.03
2019-02-19T11:31:43.444Z,98436.78
2019-02-19T11:34:15.488Z,98423.64
2019-02-19T11:36:47.490Z,98422.50
2019-02-19T11:39:19.517Z,98434.05
2019-02-19T11:41:51.509Z,98421.42
2019-02-19T11:44:23.516Z,98428.06
2019-02-19T11:46:55.531Z,98423.91
2019-02-19T11:49:27.554Z,98425.09
2019-02-19T11:51:59.526Z,98414.66
2019-02-19T11:54:31.514Z,98411.91
2019-02-19T11:57:03.462Z,98415.17
2019-02-19T11:59:35.442Z,98408.77
2019-02-19T12:02:11.867Z,98401.63
2019-02-19T12:04:43.884Z,98383.48
2019-02-19T12:07:15.876Z,98387.66
2019-02-19T12:09:47.978Z,98395.36
2019-02-19T12:12:19.952Z,98401.30
2019-02-19T12:14:52.005Z,98401.20
2019-02-19T12:17:24.041Z,98404.20
2019-02-19T12:19:56.109Z,98405.20
2019-02-19T12:22:28.091Z,98404.27
2019-02-19T12:25:00.107Z,98401.84
2019-02-19T12:27:32.250Z,98400.97
2019-02-19T12:30:05.179Z,98400.83
2019-02-19T12:32:37.181Z,98405.56
2019-02-19T12:35:09.216Z,98391.88
2019-02-19T12:37:41.207Z,98388.91
2019-02-19T12:40:13.192Z,98389.23
2019-02-19T12:42:45.164Z,98393.82
2019-02-19T12:45:17.156Z,98390.38
2019-02-19T12:47:49.166Z,98392.82
2019-02-19T12:50:21.196Z,98392.98
2019-02-19T12:52:53.448Z,98398.20
2019-02-19T12:55:25.469Z,98390.78
2019-02-19T12:57:57.457Z,98389.78
2019-02-19T13:00:29.455Z,98387.46
2019-02-19T13:03:01.440Z,98387.22
2019-02-19T13:05:33.449Z,98394.48
2019-02-19T13:08:05.398Z,98393.41
2019-02-19T13:10:37.422Z,98392.97
2019-02-19T13:13:09.396Z,98400.66
2019-02-19T13:15:41.447Z,98398.88
2019-02-19T13:18:13.438Z,98405.05
2019-02-19T13:20:45.471Z,98405.92
2019-02-19T13:23:17.497Z,98412.66
2019-02-19T13:25:49.506Z,98420.59
2019-02-19T13:28:21.516Z,98420.92
2019-02-19T13:30:53.528Z,98421.55
2019-02-19T13:33:25.545Z,98416.95
2019-02-19T13:35:57.558Z,98413.54
2019-02-19T13:38:29.578Z,98433.27
2019-02-19T13:41:01.601Z,98424.55
2019-02-19T13:43:33.641Z,98433.73
2019-02-19T13:46:05.672Z,98428.06
2019-02-19T13:48:37.643Z,98426.72
2019-02-19T13:51:09.655Z,98431.43
2019-02-19T13:53:50.113Z,98424.65
2019-02-19T13:56:22.137Z,98429.98
2019-02-19T13:58:54.170Z,98435.31
2019-02-19T14:01:26.152Z,98439.84
2019-02-19T14:03:58.158Z,98437.09
2019-02-19T14:06:30.307Z,98432.66
2019-02-19T14:09:03.341Z,98438.65
2019-02-19T14:11:35.341Z,98439.23
2019-02-19T14:14:17.132Z,98443.09
2019-02-19T14:16:55.421Z,98441.30
2019-02-19T14:19:45.437Z,98447.99
2019-02-19T14:22:46.161Z,98443.76
2019-02-19T14:25:36.139Z,98446.83
2019-02-19T14:28:36.989Z,98442.59
2019-02-19T14:31:28.563Z,98445.81
2019-02-19T14:34:27.186Z,98448.77
2019-02-19T14:37:27.792Z,98450.72
2019-02-19T14:40:31.467Z,98458.39
2019-02-19T14:43:41.220Z,98458.39
2019-02-19T14:46:32.830Z,98459.36
2019-02-19T14:49:34.092Z,98454.80
2019-02-19T14:52:04.594Z,98453.11
2019-02-19T14:54:56.853Z,98450.55
2019-02-19T14:57:50.691Z,98455.39
2019-02-19T15:00:42.301Z,98456.46
2019-02-19T15:03:42.742Z,98450.63
2019-02-19T15:06:43.183Z,98450.08
2019-02-19T15:09:37.622Z,98448.39
2019-02-19T15:12:38.276Z,98442.69
2019-02-19T15:15:36.796Z,98438.56
2019-02-19T15:18:16.627Z,98442.28
2019-02-19T15:21:26.432Z,98442.56
2019-02-19T15:24:16.561Z,98436.28
2019-02-19T15:27:11.222Z,98437.69
2019-02-19T15:30:16.407Z,98438.67
2019-02-19T15:33:10.811Z,98432.88
2019-02-19T15:36:14.742Z,98443.17
2019-02-19T15:38:53.683Z,98438.95
2019-02-19T15:41:54.361Z,98437.47
2019-02-19T15:44:44.562Z,98441.09
2019-02-19T15:47:36.240Z,98447.28
2019-02-19T15:50:19.007Z,98444.04
2019-02-19T15:53:10.651Z,98442.77
2019-02-19T15:56:00.927Z,98439.63
2019-02-19T15:58:50.015Z,98440.97
2019-02-19T16:01:36.716Z,98449.09
2019-02-19T16:04:34.298Z,98449.69
2019-02-19T16:07:41.095Z,98441.81
2019-02-19T16:10:50.884Z,98438.86
2019-02-19T16:13:31.559Z,98433.16
2019-02-19T16:16:30.427Z,98438.33
2019-02-19T16:19:32.588Z,98445.02
2019-02-19T16:22:11.153Z,98444.30
2019-02-19T16:25:01.830Z,98436.70
2019-02-19T16:27:52.338Z,98443.29
2019-02-19T16:30:42.711Z,98444.27
2019-02-19T16:33:29.570Z,98445.73
2019-02-19T16:36:11.129Z,98445.52
2019-02-19T16:38:56.105Z,98443.12
2019-02-19T16:41:50.809Z,98448.89
2019-02-19T16:44:51.553Z,98452.51
2019-02-19T16:47:45.898Z,98456.13
2019-02-19T16:50:43.612Z,98461.13
2019-02-19T16:53:31.315Z,98467.17
2019-02-19T16:56:26.968Z,98468.23
2019-02-19T16:59:26.944Z,98466.48
2019-02-19T17:02:20.946Z,98469.35
2019-02-19T17:05:15.709Z,98475.42
2019-02-19T17:08:10.197Z,98466.16
2019-02-19T17:10:52.509Z,98474.69
2019-02-19T17:13:42.993Z,98480.18
2019-02-19T17:16:29.997Z,98478.03
2019-02-19T17:19:11.845Z,98479.48
2019-02-19T17:22:01.930Z,98484.45
2019-02-19T17:24:45.035Z,98486.13
2019-02-19T17:27:39.548Z,98482.17
2019-02-19T17:30:46.387Z,98485.91
2019-02-19T17:33:43.721Z,98496.86
2019-02-19T17:36:41.611Z,98495.89
2019-02-19T17:39:33.207Z,98501.87
2019-02-19T17:42:27.053Z,98502.80
2019-02-19T17:45:23.688Z,98504.59
2019-02-19T17:48:07.015Z,98505.25
2019-02-19T17:50:58.861Z,98513.17
2019-02-19T17:53:43.102Z,98507.94
2019-02-19T17:56:37.238Z,98511.55
2019-02-19T17:59:31.574Z,98518.44
2019-02-19T18:02:26.108Z,98515.37
2019-02-19T18:05:16.337Z,98523.15
2019-02-19T18:08:03.725Z,98529.13
2019-02-19T18:10:58.258Z,98531.45
2019-02-19T18:13:49.973Z,98537.22
2019-02-19T18:16:40.438Z,98538.00
2019-02-19T18:19:12.633Z,98540.55
2019-02-19T18:21:44.794Z,98538.53
2019-02-19T18:24:16.840Z,98535.88
2019-02-19T18:26:48.908Z,98535.75
2019-02-19T18:29:21.085Z,98534.91
2019-02-19T18:31:53.272Z,98544.67
2019-02-19T18:34:25.373Z,98539.26
2019-02-19T18:36:57.604Z,98541.67
2019-02-19T18:39:29.806Z,98536.31
2019-02-19T18:42:01.986Z,98534.81
2019-02-19T18:44:34.335Z,98538.77
2019-02-19T18:47:08.401Z,98542.98
2019-02-19T18:49:41.875Z,98538.94
2019-02-19T18:52:13.989Z,98537.56
2019-02-19T18:54:47.168Z,98532.24
2019-02-19T18:57:19.342Z,98539.37
2019-02-19T18:59:51.453Z,98540.19
2019-02-19T19:02:23.799Z,98543.52
2019-02-19T19:04:56.173Z,98548.78
2019-02-19T19:07:28.252Z,98547.60
2019-02-19T19:10:00.788Z,98549.92
2019-02-19T19:12:33.054Z,98548.45
2019-02-19T19:15:06.109Z,98552.04
2019-02-19T19:17:38.233Z,98555.50
2019-02-19T19:20:10.482Z,98557.88
2019-02-19T19:22:42.889Z,98564.39
2019-02-19T19:25:15.109Z,98558.56
2019-02-19T19:27:47.213Z,98562.69
2019-02-19T19:30:19.673Z,98560.42
2019-02-19T19:32:51.866Z,98564.02
2019-02-19T19:35:24.111Z,98565.61
2019-02-19T19:37:56.331Z,98570.08
2019-02-19T19:40:29.898Z,98561.09
2019-02-19T19:43:01.971Z,98569.28
2019-02-19T19:45:34.260Z,98573.63
2019-02-19T19:48:06.448Z,98579.11
2019-02-19T19:50:38.968Z,98582.05
2019-02-19T19:53:11.238Z,98583.96
2019-02-19T19:55:43.436Z,98591.23
2019-02-19T19:58:15.711Z,98590.20
2019-02-19T20:00:47.935Z,98591.62
2019-02-19T20:03:21.376Z,98590.09
2019-02-19T20:05:53.540Z,98593.55
2019-02-19T20:08:25.728Z,98596.32
2019-02-19T20:10:57.995Z,98595.81
2019-02-19T20:13:30.187Z,98592.38
2019-02-19T20:16:02.702Z,98601.40
2019-02-19T20:18:39.120Z,98602.91
2019-02-19T20:21:09.314Z,98602.00
2019-02-19T20:23:41.626Z,98602.99
2019-02-19T20:26:13.954Z,98603.34
2019-02-19T20:28:46.119Z,98608.41
2019-02-19T20:31:18.340Z,98603.92
2019-02-19T20:33:50.677Z,98607.36
2019-02-19T20:36:24.200Z,98619.60
2019-02-19T20:38:56.573Z,98622.22
2019-02-19T20:41:28.838Z,98620.92
2019-02-19T20:44:01.173Z,98619.06
2019-02-19T20:46:34.570Z,98615.26
2019-02-19T20:49:06.940Z,98622.59
2019-02-19T20:51:39.172Z,98616.84
2019-02-19T20:54:11.301Z,98627.05
2019-02-19T20:56:43.462Z,98633.50
2019-02-19T20:59:15.640Z,98632.92
2019-02-19T21:01:47.896Z,98639.60
2019-02-19T21:04:20.105Z,98639.09
2019-02-19T21:06:52.192Z,98635.52
2019-02-19T21:09:24.466Z,98643.07
2019-02-19T21:11:56.575Z,98640.27
2019-02-19T21:14:28.820Z,98644.19
2019-02-19T21:17:01.094Z,98646.33
2019-02-19T21:19:33.281Z,98650.02
2019-02-19T21:22:06.430Z,98648.03
2019-02-19T21:24:38.552Z,98650.13
2019-02-19T21:27:10.704Z,98651.05
2019-02-19T21:29:42.820Z,98656.88
2019-02-19T21:32:14.911Z,98656.45
2019-02-19T21:34:46.943Z,98655.28
2019-02-19T21:37:19.173Z,98657.75
2019-02-19T21:39:51.462Z,98656.20
2019-02-19T21:42:23.461Z,98654.85
2019-02-19T21:44:56.906Z,98657.83
2019-02-19T21:47:28.917Z,98660.70
2019-02-19T21:50:01.066Z,98659.06
2019-02-19T21:52:33.149Z,98660.10
2019-02-19T21:55:05.364Z,98655.55
2019-02-19T21:57:37.454Z,98653.52
2019-02-19T22:00:10.437Z,98658.64
2019-02-19T22:02:44.243Z,98655.20
2019-02-19T22:05:17.365Z,98654.72
2019-02-19T22:07:49.542Z,98656.67
2019-02-19T22:10:21.760Z,98644.86
2019-02-19T22:12:53.893Z,98645.03
2019-02-19T22:15:25.934Z,98649.05
2019-02-19T22:17:57.968Z,98648.98
2019-02-19T22:20:39.536Z,98654.71
2019-02-19T22:23:11.560Z,98660.95
2019-02-19T22:25:43.600Z,98646.55
2019-02-19T22:28:16.923Z,98655.23
2019-02-19T22:30:50.038Z,98655.47
2019-02-19T22:33:22.177Z,98660.95
2019-02-19T22:35:54.325Z,98664.98
2019-02-19T22:38:26.315Z,98662.97
2019-02-19T22:40:58.344Z,98663.06
2019-02-19T22:43:30.346Z,98657.05
2019-02-19T22:46:02.296Z,98660.88
2019-02-19T22:48:34.447Z,98659.11
2019-02-19T22:51:06.430Z,98665.13
2019-02-19T22:53:45.176Z,98667.66
2019-02-19T22:56:24.368Z,98664.53
2019-02-19T22:58:56.376Z,98669.95
2019-02-19T23:01:57.194Z,98670.68
2019-02-19T23:04:29.289Z,98675.73
2019-02-19T23:07:01.306Z,98675.14
2019-02-19T23:09:33.320Z,98677.59
2019-02-19T23:12:05.390Z,98680.95
2019-02-19T23:14:37.392Z,98680.58
2019-02-19T23:17:09.531Z,98685.94
2019-02-19T23:19:42.928Z,98684.75
2019-02-19T23:22:21.410Z,98681.55
2019-02-19T23:24:50.480Z,98685.61
2019-02-19T23:27:22.620Z,98684.43
2019-02-19T23:29:54.623Z,98684.03
2019-02-19T23:32:26.620Z,98686.67
2019-02-19T23:35:33.264Z,98691.44
2019-02-19T23:38:05.262Z,98689.58
2019-02-19T23:40:37.293Z,98692.34
2019-02-19T23:43:09.267Z,98693.65
2019-02-19T23:45:41.293Z,98691.66
2019-02-19T23:48:13.278Z,98692.25
2019-02-19T23:50:45.369Z,98688.39
2019-02-19T23:53:17.371Z,98691.13
2019-02-19T23:55:51.183Z,98694.09
2019-02-19T23:58:23.259Z,98698.47
